createdAt,value
2019-03-12T00:00:17.456Z,15.47
2019-03-12T00:02:50.153Z,15.44
2019-03-12T00:05:22.284Z,15.41
2019-03-12T00:07:54.411Z,15.37
2019-03-12T00:10:26.533Z,15.35
2019-03-12T00:12:58.654Z,15.33
2019-03-12T00:15:30.793Z,15.29
2019-03-12T00:18:04.001Z,15.27
2019-03-12T00:20:36.131Z,15.25
2019-03-12T00:23:08.259Z,15.23
2019-03-12T00:25:40.395Z,15.21
2019-03-12T00:28:12.526Z,15.20
2019-03-12T00:30:44.658Z,15.17
2019-03-12T00:33:16.790Z,15.16
2019-03-12T00:35:48.995Z,15.13
2019-03-12T00:38:21.133Z,15.11
2019-03-12T00:40:53.258Z,15.10
2019-03-12T00:43:25.410Z,15.08
2019-03-12T00:45:57.521Z,15.07
2019-03-12T00:48:29.653Z,15.05
2019-03-12T00:51:01.784Z,15.04
2019-03-12T00:53:33.915Z,15.02
2019-03-12T00:56:06.039Z,15.00
2019-03-12T00:58:38.166Z,14.98
2019-03-12T01:01:10.292Z,14.99
2019-03-12T01:03:42.421Z,14.98
2019-03-12T01:06:14.549Z,14.97
2019-03-12T01:08:46.668Z,14.97
2019-03-12T01:11:18.811Z,14.96
2019-03-12T01:13:50.937Z,14.94
2019-03-12T01:16:23.071Z,14.93
2019-03-12T01:18:55.202Z,14.91
2019-03-12T01:21:27.331Z,14.90
2019-03-12T01:23:59.461Z,14.90
2019-03-12T01:26:31.598Z,14.89
2019-03-12T01:29:03.727Z,14.87
2019-03-12T01:31:35.849Z,14.86
2019-03-12T01:34:07.979Z,14.84
2019-03-12T01:36:40.110Z,14.84
2019-03-12T01:39:12.237Z,14.83
2019-03-12T01:41:44.368Z,14.81
2019-03-12T01:44:16.498Z,14.81
2019-03-12T01:46:48.642Z,14.79
2019-03-12T01:49:20.770Z,14.79
2019-03-12T01:51:52.906Z,14.79
2019-03-12T01:54:25.028Z,14.78
2019-03-12T01:56:57.169Z,14.78
2019-03-12T01:59:29.303Z,14.77
2019-03-12T02:02:01.454Z,14.76
2019-03-12T02:04:33.579Z,14.76
2019-03-12T02:07:05.715Z,14.75
2019-03-12T02:09:37.916Z,14.74
2019-03-12T02:12:10.045Z,14.74
2019-03-12T02:14:42.168Z,14.73
2019-03-12T02:17:14.292Z,14.72
2019-03-12T02:19:46.739Z,14.72
2019-03-12T02:22:18.865Z,14.72
2019-03-12T02:24:53.026Z,14.71
2019-03-12T02:27:24.827Z,14.69
2019-03-12T02:29:56.970Z,14.69
2019-03-12T02:32:29.115Z,14.68
2019-03-12T02:35:01.251Z,14.67
2019-03-12T02:37:33.384Z,14.66
2019-03-12T02:40:05.501Z,14.66
2019-03-12T02:42:37.625Z,14.65
2019-03-12T02:45:09.757Z,14.64
2019-03-12T02:47:41.901Z,14.63
2019-03-12T02:50:14.032Z,14.62
2019-03-12T02:52:46.176Z,14.61
2019-03-12T02:55:18.292Z,14.59
2019-03-12T02:57:50.408Z,14.59
2019-03-12T03:00:22.542Z,14.58
2019-03-12T03:02:54.831Z,14.57
2019-03-12T03:05:26.961Z,14.56
2019-03-12T03:07:59.062Z,14.56
2019-03-12T03:10:31.199Z,14.55
2019-03-12T03:13:03.339Z,14.55
2019-03-12T03:15:35.461Z,14.54
2019-03-12T03:18:07.607Z,14.55
2019-03-12T03:20:39.744Z,14.56
2019-03-12T03:23:13.046Z,14.57
2019-03-12T03:25:45.169Z,14.58
2019-03-12T03:28:17.302Z,14.58
2019-03-12T03:30:49.767Z,14.59
2019-03-12T03:33:21.933Z,14.58
2019-03-12T03:35:54.040Z,14.58
2019-03-12T03:38:26.171Z,14.55
2019-03-12T03:40:58.318Z,14.55
2019-03-12T03:43:30.437Z,14.56
2019-03-12T03:46:02.573Z,14.57
2019-03-12T03:48:34.709Z,14.61
2019-03-12T03:51:06.837Z,14.63
2019-03-12T03:53:40.032Z,14.64
2019-03-12T03:56:12.170Z,14.64
2019-03-12T03:58:44.300Z,14.65
2019-03-12T04:01:17.396Z,14.65
2019-03-12T04:03:49.871Z,14.63
2019-03-12T04:06:21.989Z,14.61
2019-03-12T04:08:54.120Z,14.60
2019-03-12T04:11:26.246Z,14.61
2019-03-12T04:13:58.384Z,14.64
2019-03-12T04:16:30.537Z,14.67
2019-03-12T04:19:02.670Z,14.69
2019-03-12T04:21:34.801Z,14.70
2019-03-12T04:24:06.933Z,14.71
2019-03-12T04:26:39.069Z,14.70
2019-03-12T04:29:11.197Z,14.68
2019-03-12T04:31:43.324Z,14.66
2019-03-12T04:34:15.456Z,14.65
2019-03-12T04:36:47.582Z,14.63
2019-03-12T04:39:19.722Z,14.66
2019-03-12T04:41:51.854Z,14.70
2019-03-12T04:44:24.950Z,14.74
2019-03-12T04:46:57.088Z,14.74
2019-03-12T04:49:29.211Z,14.74
2019-03-12T04:52:01.367Z,14.73
2019-03-12T04:54:33.498Z,14.71
2019-03-12T04:57:05.630Z,14.69
2019-03-12T04:59:37.752Z,14.71
2019-03-12T05:02:09.875Z,14.69
2019-03-12T05:04:42.012Z,14.71
2019-03-12T05:07:14.152Z,14.75
2019-03-12T05:09:46.279Z,14.78
2019-03-12T05:12:18.670Z,14.82
2019-03-12T05:14:50.803Z,14.82
2019-03-12T05:17:22.936Z,14.79
2019-03-12T05:19:55.071Z,14.79
2019-03-12T05:22:27.199Z,14.78
2019-03-12T05:24:59.322Z,14.77
2019-03-12T05:27:31.471Z,14.77
2019-03-12T05:30:03.592Z,14.79
2019-03-12T05:32:36.802Z,14.83
2019-03-12T05:35:08.927Z,14.89
2019-03-12T05:37:41.052Z,15.02
2019-03-12T05:40:13.176Z,15.19
2019-03-12T05:42:45.313Z,15.40
2019-03-12T05:45:17.448Z,15.60
2019-03-12T05:47:49.574Z,15.81
2019-03-12T05:50:21.705Z,15.97
2019-03-12T05:52:53.848Z,16.11
2019-03-12T05:55:25.959Z,16.22
2019-03-12T05:57:58.088Z,16.32
2019-03-12T06:00:30.213Z,16.40
2019-03-12T06:03:02.339Z,16.48
2019-03-12T06:05:34.470Z,16.52
2019-03-12T06:08:06.597Z,16.55
2019-03-12T06:10:38.733Z,16.58
2019-03-12T06:13:10.855Z,16.62
2019-03-12T06:15:42.981Z,16.66
2019-03-12T06:18:15.123Z,16.67
2019-03-12T06:20:47.233Z,16.66
2019-03-12T06:23:19.370Z,16.64
2019-03-12T06:25:51.497Z,16.61
2019-03-12T06:28:23.627Z,16.63
2019-03-12T06:30:55.759Z,16.67
2019-03-12T06:33:27.893Z,16.72
2019-03-12T06:36:00.022Z,16.77
2019-03-12T06:38:32.180Z,16.83
2019-03-12T06:41:04.296Z,16.90
2019-03-12T06:43:36.422Z,16.95
2019-03-12T06:46:08.557Z,17.01
2019-03-12T06:48:40.685Z,17.05
2019-03-12T06:51:12.813Z,17.08
2019-03-12T06:53:44.949Z,17.11
2019-03-12T06:56:17.096Z,17.12
2019-03-12T06:58:49.310Z,17.12
2019-03-12T07:01:21.447Z,17.16
2019-03-12T07:03:53.582Z,17.17
2019-03-12T07:06:25.711Z,17.18
2019-03-12T07:08:57.847Z,17.19
2019-03-12T07:11:30.017Z,17.20
2019-03-12T07:14:02.117Z,17.21
2019-03-12T07:16:34.248Z,17.22
2019-03-12T07:19:06.381Z,17.21
2019-03-12T07:21:38.511Z,17.22
2019-03-12T07:24:13.117Z,17.22
2019-03-12T07:26:44.484Z,17.23
2019-03-12T07:29:16.610Z,17.24
2019-03-12T07:31:48.763Z,17.25
2019-03-12T07:34:20.872Z,17.28
2019-03-12T07:36:53.004Z,17.28
2019-03-12T07:39:25.146Z,17.31
2019-03-12T07:41:57.281Z,17.33
2019-03-12T07:44:29.418Z,17.34
2019-03-12T07:47:01.558Z,17.35
2019-03-12T07:49:33.695Z,17.37
2019-03-12T07:52:08.668Z,17.39
2019-03-12T07:54:39.639Z,17.41
2019-03-12T07:57:11.767Z,17.43
2019-03-12T07:59:43.907Z,17.43
2019-03-12T08:02:16.023Z,17.46
2019-03-12T08:04:48.156Z,17.48
2019-03-12T08:07:20.280Z,17.49
2019-03-12T08:09:53.490Z,17.49
2019-03-12T08:12:25.623Z,17.49
2019-03-12T08:14:58.936Z,17.52
2019-03-12T08:17:31.056Z,17.55
2019-03-12T08:20:03.184Z,17.56
2019-03-12T08:22:35.315Z,17.57
2019-03-12T08:25:07.446Z,17.61
2019-03-12T08:27:39.577Z,17.61
2019-03-12T08:30:11.707Z,17.62
2019-03-12T08:32:43.839Z,17.60
2019-03-12T08:35:16.053Z,17.61
2019-03-12T08:37:48.183Z,17.66
2019-03-12T08:40:20.305Z,17.68
2019-03-12T08:42:54.801Z,17.74
2019-03-12T08:45:26.293Z,17.78
2019-03-12T08:47:58.415Z,17.79
2019-03-12T08:50:30.542Z,17.80
2019-03-12T08:53:02.672Z,17.81
2019-03-12T08:55:34.797Z,17.82
2019-03-12T08:58:06.944Z,17.83
2019-03-12T09:00:39.069Z,17.85
2019-03-12T09:03:11.276Z,17.89
2019-03-12T09:05:43.415Z,17.95
2019-03-12T09:08:15.531Z,18.01
2019-03-12T09:10:47.658Z,18.09
2019-03-12T09:13:19.792Z,18.17
2019-03-12T09:15:51.914Z,18.28
2019-03-12T09:18:24.041Z,18.40
2019-03-12T09:20:56.166Z,18.51
2019-03-12T09:23:28.299Z,18.63
2019-03-12T09:26:00.424Z,18.72
2019-03-12T09:28:32.567Z,18.83
2019-03-12T09:31:04.699Z,18.95
2019-03-12T09:33:36.834Z,19.05
2019-03-12T09:36:08.958Z,19.12
2019-03-12T09:38:41.087Z,19.13
2019-03-12T09:41:13.215Z,19.07
2019-03-12T09:43:48.078Z,19.00
2019-03-12T09:46:19.175Z,18.94
2019-03-12T09:48:51.294Z,18.91
2019-03-12T09:51:23.428Z,18.90
2019-03-12T09:53:55.563Z,18.89
2019-03-12T09:56:27.693Z,18.93
2019-03-12T09:58:59.817Z,18.97
2019-03-12T10:01:31.957Z,19.00
2019-03-12T10:04:04.120Z,19.01
2019-03-12T10:06:36.220Z,18.98
2019-03-12T10:09:08.341Z,18.96
2019-03-12T10:11:40.473Z,18.94
2019-03-12T10:14:12.945Z,18.90
2019-03-12T10:16:45.079Z,18.86
2019-03-12T10:19:17.204Z,18.83
2019-03-12T10:21:49.344Z,18.83
2019-03-12T10:24:21.476Z,18.85
2019-03-12T10:26:53.601Z,18.87
2019-03-12T10:29:25.729Z,18.89
2019-03-12T10:31:57.859Z,18.93
2019-03-12T10:34:30.307Z,18.97
2019-03-12T10:37:12.153Z,19.01
2019-03-12T10:39:36.317Z,19.05
2019-03-12T10:42:08.450Z,19.07
2019-03-12T10:44:40.580Z,19.08
2019-03-12T10:47:12.721Z,19.07
2019-03-12T10:49:44.849Z,19.05
2019-03-12T10:52:16.976Z,19.04
2019-03-12T10:54:49.108Z,19.01
2019-03-12T10:57:21.723Z,19.02
2019-03-12T10:59:54.043Z,19.04
2019-03-12T11:02:26.175Z,19.06
2019-03-12T11:04:58.303Z,19.10
2019-03-12T11:07:30.426Z,19.12
2019-03-12T11:10:02.559Z,19.14
2019-03-12T11:12:34.680Z,19.12
2019-03-12T11:15:06.811Z,19.11
2019-03-12T11:17:48.837Z,19.10
2019-03-12T11:20:12.774Z,19.07
2019-03-12T11:22:44.899Z,19.06
2019-03-12T11:25:26.633Z,19.07
2019-03-12T11:27:50.858Z,19.09
2019-03-12T11:30:24.102Z,19.14
2019-03-12T11:32:56.239Z,19.17
2019-03-12T11:35:38.194Z,19.17
2019-03-12T11:38:02.418Z,19.19
2019-03-12T11:40:34.613Z,19.23
2019-03-12T11:43:06.817Z,19.29
2019-03-12T11:45:39.409Z,19.37
2019-03-12T11:48:11.645Z,19.42
2019-03-12T11:50:43.854Z,19.43
2019-03-12T11:53:15.992Z,19.45
2019-03-12T11:55:48.113Z,19.47
2019-03-12T11:58:20.253Z,19.44
2019-03-12T12:00:52.356Z,19.44
2019-03-12T12:03:24.498Z,19.47
2019-03-12T12:05:56.620Z,19.48
2019-03-12T12:08:28.754Z,19.55
2019-03-12T12:11:00.876Z,19.59
2019-03-12T12:13:33.002Z,19.67
2019-03-12T12:16:05.139Z,19.73
2019-03-12T12:18:37.263Z,19.77
2019-03-12T12:21:09.390Z,19.80
2019-03-12T12:23:41.520Z,19.79
2019-03-12T12:26:13.652Z,19.74
2019-03-12T12:28:45.792Z,19.71
2019-03-12T12:31:17.904Z,19.68
2019-03-12T12:33:50.028Z,19.65
2019-03-12T12:36:22.161Z,19.64
2019-03-12T12:38:54.292Z,19.64
2019-03-12T12:41:26.420Z,19.66
2019-03-12T12:43:58.547Z,19.66
2019-03-12T12:46:30.678Z,19.69
2019-03-12T12:49:02.814Z,19.71
2019-03-12T12:51:34.940Z,19.73
2019-03-12T12:54:09.546Z,19.72
2019-03-12T12:56:41.869Z,19.68
2019-03-12T12:59:14.007Z,19.64
2019-03-12T13:01:46.125Z,19.60
2019-03-12T13:04:18.257Z,19.56
2019-03-12T13:06:50.391Z,19.52
2019-03-12T13:09:22.514Z,19.51
2019-03-12T13:11:54.634Z,19.49
2019-03-12T13:14:26.762Z,19.49
2019-03-12T13:16:58.890Z,19.50
2019-03-12T13:19:31.060Z,19.52
2019-03-12T13:22:03.158Z,19.51
2019-03-12T13:24:35.291Z,19.49
2019-03-12T13:27:07.425Z,19.48
2019-03-12T13:29:39.552Z,19.44
2019-03-12T13:32:13.749Z,19.40
2019-03-12T13:34:45.500Z,19.38
2019-03-12T13:37:18.595Z,19.36
2019-03-12T13:39:50.732Z,19.36
2019-03-12T13:42:22.889Z,19.37
2019-03-12T13:44:54.990Z,19.38
2019-03-12T13:47:28.894Z,19.41
2019-03-12T13:50:01.871Z,19.42
2019-03-12T13:52:35.650Z,19.46
2019-03-12T13:55:07.819Z,19.46
2019-03-12T13:57:39.904Z,19.42
2019-03-12T14:00:12.044Z,19.38
2019-03-12T14:02:44.168Z,19.31
2019-03-12T14:05:16.303Z,19.26
2019-03-12T14:07:48.417Z,19.21
2019-03-12T14:10:20.560Z,19.17
2019-03-12T14:12:52.710Z,19.15
2019-03-12T14:15:24.841Z,19.12
2019-03-12T14:17:57.215Z,19.09
2019-03-12T14:20:29.354Z,19.06
2019-03-12T14:23:01.488Z,19.02
2019-03-12T14:25:33.606Z,18.97
2019-03-12T14:28:05.736Z,18.95
2019-03-12T14:30:37.863Z,18.94
2019-03-12T14:33:10.002Z,18.93
2019-03-12T14:35:51.519Z,18.94
2019-03-12T14:38:16.025Z,18.96
2019-03-12T14:40:48.163Z,18.97
2019-03-12T14:43:20.316Z,18.99
2019-03-12T14:45:52.419Z,19.00
2019-03-12T14:48:25.881Z,19.04
2019-03-12T14:50:57.985Z,19.07
2019-03-12T14:53:30.118Z,19.10
2019-03-12T14:56:02.270Z,19.12
2019-03-12T14:58:34.369Z,19.11
2019-03-12T15:01:06.499Z,19.09
2019-03-12T15:03:38.649Z,19.04
2019-03-12T15:06:10.788Z,18.99
2019-03-12T15:08:42.953Z,18.93
2019-03-12T15:11:15.077Z,18.90
2019-03-12T15:13:47.206Z,18.87
2019-03-12T15:16:19.338Z,18.87
2019-03-12T15:18:52.221Z,18.86
2019-03-12T15:21:24.562Z,18.87
2019-03-12T15:23:56.685Z,18.88
2019-03-12T15:26:28.807Z,18.89
2019-03-12T15:29:00.938Z,18.89
2019-03-12T15:31:33.072Z,18.86
2019-03-12T15:34:05.207Z,18.84
2019-03-12T15:36:37.343Z,18.80
2019-03-12T15:39:09.476Z,18.76
2019-03-12T15:41:43.226Z,18.72
2019-03-12T15:44:15.352Z,18.68
2019-03-12T15:46:47.473Z,18.66
2019-03-12T15:49:19.596Z,18.64
2019-03-12T15:51:51.713Z,18.64
2019-03-12T15:54:23.844Z,18.65
2019-03-12T15:56:55.973Z,18.65
2019-03-12T15:59:28.106Z,18.64
2019-03-12T16:02:00.238Z,18.62
2019-03-12T16:04:32.371Z,18.60
2019-03-12T16:07:04.499Z,18.56
2019-03-12T16:09:36.627Z,18.52
2019-03-12T16:12:08.747Z,18.44
2019-03-12T16:14:40.914Z,18.39
2019-03-12T16:17:14.009Z,18.36
2019-03-12T16:19:46.148Z,18.36
2019-03-12T16:22:18.272Z,18.35
2019-03-12T16:24:50.396Z,18.37
2019-03-12T16:27:22.547Z,18.40
2019-03-12T16:29:54.669Z,18.41
2019-03-12T16:32:26.800Z,18.44
2019-03-12T16:34:58.919Z,18.42
2019-03-12T16:37:31.046Z,18.40
2019-03-12T16:40:03.182Z,18.39
2019-03-12T16:42:35.474Z,18.35
2019-03-12T16:45:07.621Z,18.33
2019-03-12T16:47:39.763Z,18.31
2019-03-12T16:50:11.883Z,18.31
2019-03-12T16:52:44.010Z,18.31
2019-03-12T16:55:16.144Z,18.35
2019-03-12T16:57:48.302Z,18.38
2019-03-12T17:00:20.445Z,18.42
2019-03-12T17:02:52.565Z,18.46
2019-03-12T17:05:26.339Z,18.51
2019-03-12T17:07:58.694Z,18.55
2019-03-12T17:10:30.827Z,18.55
2019-03-12T17:13:02.959Z,18.56
2019-03-12T17:15:35.083Z,18.55
2019-03-12T17:18:07.216Z,18.51
2019-03-12T17:20:39.348Z,18.47
2019-03-12T17:23:11.463Z,18.42
2019-03-12T17:25:43.621Z,18.40
2019-03-12T17:28:15.746Z,18.39
2019-03-12T17:30:47.879Z,18.40
2019-03-12T17:33:20.029Z,18.42
2019-03-12T17:35:52.124Z,18.44
2019-03-12T17:38:24.258Z,18.43
2019-03-12T17:40:56.386Z,18.43
2019-03-12T17:43:28.514Z,18.42
2019-03-12T17:46:00.655Z,18.41
2019-03-12T17:48:32.781Z,18.37
2019-03-12T17:51:04.903Z,18.33
2019-03-12T17:53:37.025Z,18.29
2019-03-12T17:56:09.152Z,18.26
2019-03-12T17:58:41.271Z,18.26
2019-03-12T18:01:13.411Z,18.28
2019-03-12T18:03:45.531Z,18.28
2019-03-12T18:06:17.676Z,18.30
2019-03-12T18:08:50.777Z,18.31
2019-03-12T18:11:22.913Z,18.32
2019-03-12T18:13:55.047Z,18.32
2019-03-12T18:16:39.929Z,18.30
2019-03-12T18:19:01.000Z,18.26
2019-03-12T18:21:33.125Z,18.22
2019-03-12T18:24:05.256Z,18.19
2019-03-12T18:26:37.395Z,18.20
2019-03-12T18:29:09.515Z,18.22
2019-03-12T18:31:41.670Z,18.28
2019-03-12T18:34:13.793Z,18.33
2019-03-12T18:36:45.920Z,18.38
2019-03-12T18:39:18.057Z,18.40
2019-03-12T18:41:50.181Z,18.40
2019-03-12T18:44:22.314Z,18.40
2019-03-12T18:46:54.446Z,18.36
2019-03-12T18:49:26.578Z,18.32
2019-03-12T18:51:58.705Z,18.28
2019-03-12T18:54:30.836Z,18.24
2019-03-12T18:57:02.951Z,18.22
2019-03-12T18:59:35.079Z,18.22
2019-03-12T19:02:07.205Z,18.24
2019-03-12T19:04:39.330Z,18.26
2019-03-12T19:07:13.309Z,18.28
2019-03-12T19:09:45.618Z,18.28
2019-03-12T19:12:17.762Z,18.25
2019-03-12T19:14:49.894Z,18.23
2019-03-12T19:17:22.023Z,18.20
2019-03-12T19:19:54.152Z,18.18
2019-03-12T19:22:26.278Z,18.17
2019-03-12T19:24:58.404Z,18.20
2019-03-12T19:27:30.527Z,18.26
2019-03-12T19:30:02.673Z,18.34
2019-03-12T19:32:35.868Z,18.39
2019-03-12T19:35:07.990Z,18.40
2019-03-12T19:37:40.118Z,18.39
2019-03-12T19:40:12.247Z,18.37
2019-03-12T19:42:44.374Z,18.30
2019-03-12T19:45:16.492Z,18.25
2019-03-12T19:47:48.619Z,18.20
2019-03-12T19:50:22.368Z,18.17
2019-03-12T19:52:54.486Z,18.14
2019-03-12T19:55:26.608Z,18.13
2019-03-12T19:57:58.731Z,18.08
2019-03-12T20:00:30.863Z,18.04
2019-03-12T20:03:11.783Z,17.98
2019-03-12T20:05:36.799Z,17.95
2019-03-12T20:08:08.936Z,17.93
2019-03-12T20:10:41.063Z,17.94
2019-03-12T20:13:13.187Z,17.95
2019-03-12T20:15:45.310Z,17.97
2019-03-12T20:18:22.160Z,17.97
2019-03-12T20:20:54.290Z,17.95
2019-03-12T20:23:26.441Z,17.91
2019-03-12T20:25:58.560Z,17.86
2019-03-12T20:28:30.686Z,17.84
2019-03-12T20:31:02.848Z,17.84
2019-03-12T20:33:34.959Z,17.87
2019-03-12T20:36:07.081Z,17.89
2019-03-12T20:38:39.209Z,17.91
2019-03-12T20:41:11.338Z,17.89
2019-03-12T20:43:43.465Z,17.85
2019-03-12T20:46:15.604Z,17.81
2019-03-12T20:48:48.698Z,17.78
2019-03-12T20:51:20.856Z,17.78
2019-03-12T20:53:52.979Z,17.81
2019-03-12T20:56:25.105Z,17.86
2019-03-12T20:58:57.243Z,17.90
2019-03-12T21:01:29.377Z,17.90
2019-03-12T21:04:01.514Z,17.87
2019-03-12T21:06:34.025Z,17.81
2019-03-12T21:09:06.190Z,17.76
2019-03-12T21:11:38.790Z,17.75
2019-03-12T21:14:10.925Z,17.76
2019-03-12T21:16:43.054Z,17.81
2019-03-12T21:19:15.182Z,17.86
2019-03-12T21:21:47.318Z,17.95
2019-03-12T21:24:19.444Z,18.01
2019-03-12T21:26:51.592Z,18.05
2019-03-12T21:29:23.705Z,18.06
2019-03-12T21:31:55.835Z,18.06
2019-03-12T21:34:27.951Z,18.03
2019-03-12T21:37:00.075Z,18.00
2019-03-12T21:39:32.222Z,17.96
2019-03-12T21:42:04.347Z,17.94
2019-03-12T21:44:36.488Z,17.92
2019-03-12T21:47:08.626Z,17.92
2019-03-12T21:49:40.765Z,17.85
2019-03-12T21:52:12.882Z,17.79
2019-03-12T21:54:45.019Z,17.72
2019-03-12T21:57:17.144Z,17.67
2019-03-12T21:59:49.280Z,17.62
2019-03-12T22:02:21.413Z,17.58
2019-03-12T22:04:53.543Z,17.54
2019-03-12T22:07:26.643Z,17.49
2019-03-12T22:09:58.773Z,17.44
2019-03-12T22:12:30.906Z,17.40
2019-03-12T22:15:03.030Z,17.36
2019-03-12T22:17:36.028Z,17.33
2019-03-12T22:20:08.151Z,17.29
2019-03-12T22:22:40.275Z,17.26
2019-03-12T22:25:12.400Z,17.24
2019-03-12T22:27:44.561Z,17.20
2019-03-12T22:30:16.684Z,17.16
2019-03-12T22:32:48.817Z,17.13
2019-03-12T22:35:20.960Z,17.10
2019-03-12T22:37:53.088Z,17.06
2019-03-12T22:40:25.214Z,17.01
2019-03-12T22:42:57.411Z,16.99
2019-03-12T22:45:29.511Z,16.94
2019-03-12T22:48:01.643Z,16.91
2019-03-12T22:50:33.770Z,16.88
2019-03-12T22:53:05.899Z,16.85
2019-03-12T22:55:38.039Z,16.82
2019-03-12T22:58:10.168Z,16.79
2019-03-12T23:00:59.856Z,16.76
2019-03-12T23:03:49.497Z,16.72
2019-03-12T23:06:39.662Z,16.69
2019-03-12T23:09:29.540Z,16.67
2019-03-12T23:12:03.295Z,16.65
2019-03-12T23:14:37.051Z,16.63
2019-03-12T23:17:09.190Z,16.61
2019-03-12T23:19:41.591Z,16.59
2019-03-12T23:22:13.987Z,16.58
2019-03-12T23:24:47.088Z,16.57
2019-03-12T23:27:19.216Z,16.54
2019-03-12T23:29:52.421Z,16.53
2019-03-12T23:32:24.555Z,16.49
2019-03-12T23:34:56.684Z,16.49
2019-03-12T23:37:28.819Z,16.47
2019-03-12T23:40:01.265Z,16.46
2019-03-12T23:42:33.460Z,16.44
2019-03-12T23:45:05.598Z,16.42
2019-03-12T23:47:37.731Z,16.41
2019-03-12T23:50:09.853Z,16.39
2019-03-12T23:52:41.987Z,16.38
2019-03-12T23:55:14.114Z,16.36
2019-03-12T23:57:46.234Z,16.36
